Home > Products > Valid Products > TAF

000
FTUS43 KOAX 221242 AAA
TAFOMA
TAF AMD
KOMA 221242Z 2213/2312 15013KT P6SM SCT050
     FM221600 16015G24KT P6SM SCT060 BKN250
     FM222100 17014KT P6SM BKN035 PROB30 2222/2302 5SM -TSRA
      OVC025CB
     FM230200 16010KT 6SM -SHRA OVC035
      TEMPO 2302/2306 4SM SHRA OVC020
     FM230600 VRB05KT 5SM BR SCT008 BKN020=



000
FTUS43 KOAX 221120
TAFOFK
TAF
KOFK 221120Z 2212/2312 16013KT P6SM SCT050 BKN200
     FM221500 17015G24KT P6SM BKN050 OVC150
     FM221900 18015KT P6SM OVC040
      TEMPO 2219/2221 5SM -SHRA
     FM222100 20010KT 6SM -SHRA OVC035
      TEMPO 2221/2301 3SM TSRA SCT015 OVC025CB
     FM230200 24005KT P6SM SCT035 BKN250=



000
FTUS43 KOAX 221120
TAFOMA
TAF
KOMA 221120Z 2212/2312 15013KT P6SM SCT020 BKN060
     FM221600 16015G24KT P6SM SCT060 BKN250
     FM222100 17014KT P6SM BKN035 PROB30 2222/2302 5SM -TSRA
      BKN025CB
     FM230200 16010KT 6SM -SHRA OVC035
      TEMPO 2302/2306 4SM SHRA OVC020
     FM230600 VRB05KT 5SM BR SCT008 BKN020=



000
FTUS43 KOAX 221120
TAFLNK
TAF
KLNK 221120Z 2212/2312 16012KT P6SM SCT070 BKN200
     FM221600 17015G24KT P6SM SCT050 BKN150
     FM222100 17012KT P6SM BKN035
      TEMPO 2221/2301 4SM TSRA BKN025CB
     FM230100 18008KT 6SM -SHRA OVC035 PROB30 2301/2305 4SM TSRA
      OVC020CB
     FM230500 24005KT 5SM BR SCT008 BKN020=



000
FTUS43 KOAX 220910 AAA
TAFOMA
TAF AMD
KOMA 220910Z 2209/2306 14011KT P6SM SCT050
     FM221100 15013KT P6SM BKN070
     FM221600 16015G24KT P6SM SCT070 BKN250
     FM222300 17012KT P6SM BKN035 PROB30 2300/2306 5SM -TSRA
      BKN025CB=



000
FTUS43 KOAX 220909 AAA
TAFLNK
TAF AMD
KLNK 220909Z 2209/2306 15010KT P6SM BKN070
     FM221200 16012KT P6SM SCT070 BKN150
     FM221600 17015G24KT P6SM SCT050 BKN200
     FM222200 17012KT P6SM BKN035
      TEMPO 2223/2303 4SM TSRA BKN025CB
     FM230300 21009KT P6SM BKN025=



000
FTUS43 KOAX 220520
TAFLNK
TAF
KLNK 220520Z 2206/2306 14011KT P6SM BKN050
     FM221200 16012KT P6SM BKN070
     FM221600 17015G24KT P6SM SCT050 BKN200
     FM222200 16014KT P6SM BKN035
      TEMPO 2223/2303 4SM TSRA BKN025CB
     FM230300 21010KT P6SM BKN025=



000
FTUS43 KOAX 220520
TAFOFK
TAF
KOFK 220520Z 2206/2306 14012KT P6SM SCT050 BKN250
     FM220800 15012KT P6SM BKN050
     FM221500 17015G24KT P6SM SCT040 BKN150
     FM221900 18015KT P6SM OVC040
      TEMPO 2221/2301 3SM TSRA BKN025CB
     FM230200 29007KT P6SM SCT035 BKN250=



000
FTUS43 KOAX 220520
TAFOMA
TAF
KOMA 220520Z 2206/2306 14012KT P6SM BKN050
     FM221100 15013KT P6SM SCT050 SCT250
     FM221600 16015G24KT P6SM SCT070 BKN250
     FM222300 17012KT P6SM BKN035 PROB30 2300/2306 5SM -TSRA
      BKN025CB=



000
FTUS43 KOAX 220520
TAFLNK
TAF
KLNK 220520Z 2206/2306 14011KT P6SM BKN050
     FM221200 16012KT P6SM BKN070
     FM221600 17015G24KT P6SM SCT050 BKN200
     FM222200 16014KT P6SM BKN035
      TEMPO 2223/2303 4SM TSRA BKN025CB
     FM230300 21010KT P6SM BKN025=



000
FTUS43 KOAX 220520
TAFOFK
TAF
KOFK 220520Z 2206/2306 14012KT P6SM SCT050 BKN250
     FM220800 15012KT P6SM BKN050
     FM221500 17015G24KT P6SM SCT040 BKN150
     FM221900 18015KT P6SM OVC040
      TEMPO 2221/2301 3SM TSRA BKN025CB
     FM230200 29007KT P6SM SCT035 BKN250=



000
FTUS43 KOAX 220520
TAFOMA
TAF
KOMA 220520Z 2206/2306 14012KT P6SM BKN050
     FM221100 15013KT P6SM SCT050 SCT250
     FM221600 16015G24KT P6SM SCT070 BKN250
     FM222300 17012KT P6SM BKN035 PROB30 2300/2306 5SM -TSRA
      BKN025CB=



000
FTUS43 KOAX 212328
TAFLNK
TAF
KLNK 212328Z 2200/2224 14010KT P6SM SKC
     FM220900 14011KT P6SM SCT040
     FM221600 16014KT P6SM BKN035=



000
FTUS43 KOAX 212328
TAFOFK
TAF
KOFK 212328Z 2200/2224 15010KT P6SM SKC
     FM220900 15012KT P6SM SCT040
     FM222100 18015KT P6SM SCT040 PROB30 2221/2224 5SM -SHRA BKN025=



000
FTUS43 KOAX 212328
TAFOMA
TAF
KOMA 212328Z 2200/2224 15009KT P6SM SKC
     FM220900 14011KT P6SM SCT040
     FM221600 16014KT P6SM BKN035=



000
FTUS43 KOAX 211723
TAFOMA
TAF
KOMA 211723Z 2118/2218 15010KT P6SM SKC
     FM220900 14011KT P6SM SCT015 BKN035
     FM221600 16014KT P6SM BKN035=



000
FTUS43 KOAX 211723
TAFLNK
TAF
KLNK 211723Z 2118/2218 16010KT P6SM SKC
     FM220900 14011KT P6SM SCT015 BKN035
     FM221600 16014KT P6SM BKN035=



000
FTUS43 KOAX 211723
TAFOFK
TAF
KOFK 211723Z 2118/2218 18010KT P6SM SKC
     FM220000 15012KT P6SM SKC
     FM220900 15012KT P6SM SCT012 BKN035
     FM221700 18015KT P6SM VCSH SCT010 OVC030=



000
FTUS43 KOAX 211120
TAFLNK
TAF
KLNK 211120Z 2112/2212 VRB04KT P6SM SKC
     FM211600 16008KT P6SM SKC
     FM211900 16011KT P6SM FEW250
     FM220400 14010KT P6SM BKN040
      TEMPO 2206/2210 BKN030=



000
FTUS43 KOAX 211120
TAFOMA
TAF
KOMA 211120Z 2112/2212 VRB04KT P6SM SKC
     FM211600 14007KT P6SM SKC
     FM211900 15011KT P6SM FEW250
     FM220400 14010KT P6SM SCT035 SCT100
      TEMPO 2208/2212 OVC035=



000
FTUS43 KOAX 211120
TAFLNK
TAF
KLNK 211120Z 2112/2212 VRB04KT P6SM SKC
     FM211600 16008KT P6SM SKC
     FM211900 16011KT P6SM FEW250
     FM220400 14010KT P6SM BKN040
      TEMPO 2206/2210 BKN030=



000
FTUS43 KOAX 211120
TAFOFK
TAF
KOFK 211120Z 2112/2212 15005KT P6SM SKC
     FM211600 16010KT P6SM SKC
     FM211900 17014G21KT P6SM FEW250
     FM220000 15012KT P6SM SCT250
     FM220600 15012KT P6SM BKN035=



000
FTUS43 KOAX 211120
TAFOMA
TAF
KOMA 211120Z 2112/2212 VRB04KT P6SM SKC
     FM211600 14007KT P6SM SKC
     FM211900 15011KT P6SM FEW250
     FM220400 14010KT P6SM SCT035 SCT100
      TEMPO 2208/2212 OVC035=



000
FTUS43 KOAX 211120
TAFLNK
TAF
KLNK 211120Z 2112/2212 VRB04KT P6SM SKC
     FM211600 16008KT P6SM SKC
     FM211900 16011KT P6SM FEW250
     FM220400 14010KT P6SM BKN040
      TEMPO 2206/2210 BKN030=



000
FTUS43 KOAX 211120
TAFLNK
TAF
KLNK 211120Z 2112/2212 VRB04KT P6SM SKC
     FM211600 16008KT P6SM SKC
     FM211900 16011KT P6SM FEW250
     FM220400 14010KT P6SM BKN040
      TEMPO 2206/2210 BKN030=



000
FTUS43 KOAX 211120
TAFOMA
TAF
KOMA 211120Z 2112/2212 VRB04KT P6SM SKC
     FM211600 14007KT P6SM SKC
     FM211900 15011KT P6SM FEW250
     FM220400 14010KT P6SM SCT035 SCT100
      TEMPO 2208/2212 OVC035=



000
FTUS43 KOAX 211120
TAFOMA
TAF
KOMA 211120Z 2112/2212 VRB04KT P6SM SKC
     FM211600 14007KT P6SM SKC
     FM211900 15011KT P6SM FEW250
     FM220400 14010KT P6SM SCT035 SCT100
      TEMPO 2208/2212 OVC035=



000
FTUS43 KOAX 211120
TAFOFK
TAF
KOFK 211120Z 2112/2212 15005KT P6SM SKC
     FM211600 16010KT P6SM SKC
     FM211900 17014G21KT P6SM FEW250
     FM220000 15012KT P6SM SCT250
     FM220600 15012KT P6SM BKN035=



000
FTUS43 KOAX 211120
TAFOFK
TAF
KOFK 211120Z 2112/2212 15005KT P6SM SKC
     FM211600 16010KT P6SM SKC
     FM211900 17014G21KT P6SM FEW250
     FM220000 15012KT P6SM SCT250
     FM220600 15012KT P6SM BKN035=



000
FTUS43 KOAX 211120
TAFOFK
TAF
KOFK 211120Z 2112/2212 15005KT P6SM SKC
     FM211600 16010KT P6SM SKC
     FM211900 17014G21KT P6SM FEW250
     FM220000 15012KT P6SM SCT250
     FM220600 15012KT P6SM BKN035=



000
FTUS43 KOAX 210520
TAFOMA
TAF
KOMA 210520Z 2106/2206 VRB04KT P6SM SKC
     FM211600 14007KT P6SM SKC
     FM211900 14014G20KT P6SM SCT250=



000
FTUS43 KOAX 210520
TAFLNK
TAF
KLNK 210520Z 2106/2206 VRB04KT P6SM SKC
     FM211600 16008KT P6SM SKC
     FM211900 16014G20KT P6SM SCT250=



000
FTUS43 KOAX 210520
TAFOFK
TAF
KOFK 210520Z 2106/2206 VRB04KT P6SM SKC
     FM211500 17008KT P6SM SKC
     FM211800 18014G21KT P6SM SCT250=



000
FTUS43 KOAX 210520
TAFOMA
TAF
KOMA 210520Z 2106/2206 VRB04KT P6SM SKC
     FM211600 14007KT P6SM SKC
     FM211900 14014G20KT P6SM SCT250=



000
FTUS43 KOAX 210520
TAFOFK
TAF
KOFK 210520Z 2106/2206 VRB04KT P6SM SKC
     FM211500 17008KT P6SM SKC
     FM211800 18014G21KT P6SM SCT250=



000
FTUS43 KOAX 210520
TAFLNK
TAF
KLNK 210520Z 2106/2206 VRB04KT P6SM SKC
     FM211600 16008KT P6SM SKC
     FM211900 16014G20KT P6SM SCT250=



000
FTUS43 KOAX 202320
TAFOMA
TAF
KOMA 202320Z 2100/2124 VRB05KT P6SM SKC
     FM211600 14007KT P6SM SKC
     FM211900 14014G20KT P6SM SKC=



000
FTUS43 KOAX 202320
TAFLNK
TAF
KLNK 202320Z 2100/2124 VRB05KT P6SM SKC
     FM211600 16008KT P6SM SKC
     FM211900 16014G20KT P6SM SKC=



000
FTUS43 KOAX 202320
TAFOFK
TAF
KOFK 202320Z 2100/2124 VRB04KT P6SM SKC
     FM211500 17008KT P6SM SKC
     FM211800 18014G21KT P6SM SKC=



000
FTUS43 KOAX 202320
TAFOFK
TAF
KOFK 202320Z 2100/2124 VRB04KT P6SM SKC
     FM211500 17008KT P6SM SKC
     FM211800 18014G21KT P6SM SKC=



000
FTUS43 KOAX 202320
TAFLNK
TAF
KLNK 202320Z 2100/2124 VRB05KT P6SM SKC
     FM211600 16008KT P6SM SKC
     FM211900 16014G20KT P6SM SKC=



000
FTUS43 KOAX 202320
TAFOMA
TAF
KOMA 202320Z 2100/2124 VRB05KT P6SM SKC
     FM211600 14007KT P6SM SKC
     FM211900 14014G20KT P6SM SKC=



000
FTUS43 KOAX 201720
TAFLNK
TAF
KLNK 201720Z 2018/2118 VRB05KT P6SM SKC
     FM211600 16008KT P6SM SKC=



000
FTUS43 KOAX 201720
TAFLNK
TAF
KLNK 201720Z 2018/2118 VRB05KT P6SM SKC
     FM211600 16008KT P6SM SKC=



000
FTUS43 KOAX 201720
TAFOFK
TAF
KOFK 201720Z 2018/2118 VRB04KT P6SM SKC
     FM211500 17008KT P6SM SKC=



000
FTUS43 KOAX 201720
TAFOFK
TAF
KOFK 201720Z 2018/2118 VRB04KT P6SM SKC
     FM211500 17008KT P6SM SKC=



000
FTUS43 KOAX 201720
TAFOMA
TAF
KOMA 201720Z 2018/2118 VRB05KT P6SM SKC
     FM211600 14007KT P6SM SKC=



000
FTUS43 KOAX 201720
TAFOMA
TAF
KOMA 201720Z 2018/2118 VRB05KT P6SM SKC
     FM211600 14007KT P6SM SKC=



000
FTUS43 KOAX 201120
TAFOFK
TAF
KOFK 201120Z 2012/2112 32005KT P6SM SKC=



000
FTUS43 KOAX 201120
TAFLNK
TAF
KLNK 201120Z 2012/2112 VRB05KT P6SM SKC=



000
FTUS43 KOAX 201120
TAFOMA
TAF
KOMA 201120Z 2012/2112 VRB05KT P6SM SKC=



000
FTUS43 KOAX 201120
TAFOFK
TAF
KOFK 201120Z 2012/2112 32005KT P6SM SKC=



000
FTUS43 KOAX 201120
TAFLNK
TAF
KLNK 201120Z 2012/2112 VRB05KT P6SM SKC=



000
FTUS43 KOAX 201120
TAFOMA
TAF
KOMA 201120Z 2012/2112 VRB05KT P6SM SKC=



000
FTUS43 KOAX 200520
TAFOFK
TAF
KOFK 200520Z 2006/2106 VRB05KT P6SM SKC=



000
FTUS43 KOAX 200520
TAFOMA
TAF
KOMA 200520Z 2006/2106 VRB05KT P6SM SKC=



000
FTUS43 KOAX 200520
TAFLNK
TAF
KLNK 200520Z 2006/2106 VRB05KT P6SM SKC=



000
FTUS43 KOAX 200520
TAFOFK
TAF
KOFK 200520Z 2006/2106 VRB05KT P6SM SKC=



000
FTUS43 KOAX 200520
TAFOMA
TAF
KOMA 200520Z 2006/2106 VRB05KT P6SM SKC=



000
FTUS43 KOAX 200520
TAFLNK
TAF
KLNK 200520Z 2006/2106 VRB05KT P6SM SKC=



000
FTUS43 KOAX 200520
TAFLNK
TAF
KLNK 200520Z 2006/2106 VRB05KT P6SM SKC=



000
FTUS43 KOAX 200520
TAFOFK
TAF
KOFK 200520Z 2006/2106 VRB05KT P6SM SKC=



000
FTUS43 KOAX 200520
TAFOMA
TAF
KOMA 200520Z 2006/2106 VRB05KT P6SM SKC=



000
FTUS43 KOAX 192320
TAFLNK
TAF
KLNK 192320Z 2000/2024 VRB05KT P6SM SKC=



000
FTUS43 KOAX 192320
TAFOMA
TAF
KOMA 192320Z 2000/2024 VRB05KT P6SM SKC=



000
FTUS43 KOAX 192320
TAFOFK
TAF
KOFK 192320Z 2000/2024 VRB05KT P6SM SKC=



000
FTUS43 KOAX 192320
TAFOFK
TAF
KOFK 192320Z 2000/2024 VRB05KT P6SM SKC=



000
FTUS43 KOAX 192320
TAFOMA
TAF
KOMA 192320Z 2000/2024 VRB05KT P6SM SKC=



000
FTUS43 KOAX 192320
TAFLNK
TAF
KLNK 192320Z 2000/2024 VRB05KT P6SM SKC=



000
FTUS43 KOAX 192320
TAFOMA
TAF
KOMA 192320Z 2000/2024 VRB05KT P6SM SKC=



000
FTUS43 KOAX 192320
TAFLNK
TAF
KLNK 192320Z 2000/2024 VRB05KT P6SM SKC=



000
FTUS43 KOAX 192320
TAFOMA
TAF
KOMA 192320Z 2000/2024 VRB05KT P6SM SKC=



000
FTUS43 KOAX 192320
TAFOFK
TAF
KOFK 192320Z 2000/2024 VRB05KT P6SM SKC=



000
FTUS43 KOAX 192320
TAFLNK
TAF
KLNK 192320Z 2000/2024 VRB05KT P6SM SKC=



000
FTUS43 KOAX 192320
TAFOFK
TAF
KOFK 192320Z 2000/2024 VRB05KT P6SM SKC=



000
FTUS43 KOAX 192209 AAA
TAFOMA
TAF AMD
KOMA 192209Z 1922/2018 24008KT P6SM SCT250
     FM200100 19005KT P6SM SCT250
     FM200500 32005KT P6SM SKC=



000
FTUS43 KOAX 192043 AAA
TAFOFK
TAF AMD
KOFK 192043Z 1921/2018 30005KT P6SM SKC=



000
FTUS43 KOAX 192043 AAA
TAFOFK
TAF AMD
KOFK 192043Z 1921/2018 30005KT P6SM SKC=



000
FTUS43 KOAX 191720
TAFOMA
TAF
KOMA 191720Z 1918/2018 21012KT P6SM SCT250
     FM192300 18005KT P6SM SCT250
     FM200500 32005KT P6SM SKC=



000
FTUS43 KOAX 191720
TAFLNK
TAF
KLNK 191720Z 1918/2018 21015G22KT P6SM SCT250
     FM192200 22005KT P6SM SCT250
     FM200500 35004KT P6SM SKC=



000
FTUS43 KOAX 191720
TAFOMA
TAF
KOMA 191720Z 1918/2018 21012KT P6SM SCT250
     FM192300 18005KT P6SM SCT250
     FM200500 32005KT P6SM SKC=



000
FTUS43 KOAX 191720
TAFOFK
TAF
KOFK 191720Z 1918/2018 24013G19KT P6SM SCT250
     FM192300 30005KT P6SM SKC=



000
FTUS43 KOAX 191720
TAFOFK
TAF
KOFK 191720Z 1918/2018 24013G19KT P6SM SCT250
     FM192300 30005KT P6SM SKC=



000
FTUS43 KOAX 191720
TAFLNK
TAF
KLNK 191720Z 1918/2018 21015G22KT P6SM SCT250
     FM192200 22005KT P6SM SCT250
     FM200500 35004KT P6SM SKC=



    US Dept of Commerce
    National Oceanic and Atmospheric Administration
    National Weather Service
    1325 East West Highway
    Silver Spring, MD 20910
    Page Author: NWS Internet Services Team
Disclaimer
Information Quality
Credits
Glossary
Privacy Policy
Freedom of Information Act (FOIA)
About Us
Career Opportunities